sensor_id;sensor_type;location;lat;lon;timestamp;temperature;humidity
60242;SHT30;46103;52.076;113.488;2023-02-18T00:01:46;-16.56;66.96
60242;SHT30;46103;52.076;113.488;2023-02-18T00:04:53;-16.52;67.24
60242;SHT30;46103;52.076;113.488;2023-02-18T00:07:58;-16.46;67.09
60242;SHT30;46103;52.076;113.488;2023-02-18T00:11:04;-16.40;67.12
60242;SHT30;46103;52.076;113.488;2023-02-18T00:14:12;-16.20;66.63
60242;SHT30;46103;52.076;113.488;2023-02-18T00:17:18;-16.03;65.59
60242;SHT30;46103;52.076;113.488;2023-02-18T00:20:23;-15.86;64.84
60242;SHT30;46103;52.076;113.488;2023-02-18T00:23:26;-15.71;64.30
60242;SHT30;46103;52.076;113.488;2023-02-18T00:26:29;-15.65;64.42
60242;SHT30;46103;52.076;113.488;2023-02-18T00:29:32;-15.58;63.92
60242;SHT30;46103;52.076;113.488;2023-02-18T00:32:39;-15.43;63.88
60242;SHT30;46103;52.076;113.488;2023-02-18T00:35:43;-15.33;62.80
60242;SHT30;46103;52.076;113.488;2023-02-18T00:39:00;-15.31;62.57
60242;SHT30;46103;52.076;113.488;2023-02-18T00:42:04;-15.12;62.39
60242;SHT30;46103;52.076;113.488;2023-02-18T00:45:08;-14.91;61.64
60242;SHT30;46103;52.076;113.488;2023-02-18T00:48:11;-14.93;62.08
60242;SHT30;46103;52.076;113.488;2023-02-18T00:51:17;-14.74;62.00
60242;SHT30;46103;52.076;113.488;2023-02-18T00:54:22;-14.47;61.13
60242;SHT30;46103;52.076;113.488;2023-02-18T00:57:26;-14.19;59.96
60242;SHT30;46103;52.076;113.488;2023-02-18T01:00:29;-13.86;58.98
60242;SHT30;46103;52.076;113.488;2023-02-18T01:03:34;-13.65;58.20
60242;SHT30;46103;52.076;113.488;2023-02-18T01:06:45;-13.57;58.05
60242;SHT30;46103;52.076;113.488;2023-02-18T01:09:48;-13.37;57.69
60242;SHT30;46103;52.076;113.488;2023-02-18T01:12:51;-13.37;56.91
60242;SHT30;46103;52.076;113.488;2023-02-18T01:15:54;-13.09;57.44
60242;SHT30;46103;52.076;113.488;2023-02-18T01:18:58;-12.78;56.64
60242;SHT30;46103;52.076;113.488;2023-02-18T01:22:03;-12.42;55.73
60242;SHT30;46103;52.076;113.488;2023-02-18T01:25:09;-12.19;55.52
60242;SHT30;46103;52.076;113.488;2023-02-18T01:28:14;-11.98;54.00
60242;SHT30;46103;52.076;113.488;2023-02-18T01:31:18;-11.94;53.87
60242;SHT30;46103;52.076;113.488;2023-02-18T01:34:22;-11.73;54.13
60242;SHT30;46103;52.076;113.488;2023-02-18T01:37:25;-11.47;53.83
60242;SHT30;46103;52.076;113.488;2023-02-18T01:40:29;-11.33;52.91
60242;SHT30;46103;52.076;113.488;2023-02-18T01:43:34;-11.32;52.03
60242;SHT30;46103;52.076;113.488;2023-02-18T01:46:38;-11.40;51.91
60242;SHT30;46103;52.076;113.488;2023-02-18T01:49:44;-11.80;52.55
60242;SHT30;46103;52.076;113.488;2023-02-18T01:52:49;-11.59;52.85
60242;SHT30;46103;52.076;113.488;2023-02-18T01:55:53;-11.64;52.36
60242;SHT30;46103;52.076;113.488;2023-02-18T01:59:01;-11.56;52.52
60242;SHT30;46103;52.076;113.488;2023-02-18T02:02:10;-11.35;52.55
60242;SHT30;46103;52.076;113.488;2023-02-18T02:05:15;-11.31;52.41
60242;SHT30;46103;52.076;113.488;2023-02-18T02:08:19;-11.33;52.90
60242;SHT30;46103;52.076;113.488;2023-02-18T02:11:23;-11.28;53.39
60242;SHT30;46103;52.076;113.488;2023-02-18T02:25:19;-10.19;51.17
60242;SHT30;46103;52.076;113.488;2023-02-18T02:29:11;-10.01;50.77
60242;SHT30;46103;52.076;113.488;2023-02-18T02:36:08;-9.26;49.86
60242;SHT30;46103;52.076;113.488;2023-02-18T02:46:10;-9.36;50.05
60242;SHT30;46103;52.076;113.488;2023-02-18T02:49:48;-9.52;51.89
60242;SHT30;46103;52.076;113.488;2023-02-18T02:53:02;-9.21;51.81
60242;SHT30;46103;52.076;113.488;2023-02-18T02:56:18;-8.79;52.00
60242;SHT30;46103;52.076;113.488;2023-02-18T02:59:25;-8.81;50.95
60242;SHT30;46103;52.076;113.488;2023-02-18T03:02:55;-8.97;51.31
60242;SHT30;46103;52.076;113.488;2023-02-18T03:07:01;-9.12;51.44
60242;SHT30;46103;52.076;113.488;2023-02-18T03:10:06;-9.35;51.83
60242;SHT30;46103;52.076;113.488;2023-02-18T03:17:14;-9.18;51.73
60242;SHT30;46103;52.076;113.488;2023-02-18T03:20:36;-9.19;52.45
60242;SHT30;46103;52.076;113.488;2023-02-18T03:23:51;-9.23;52.53
60242;SHT30;46103;52.076;113.488;2023-02-18T03:26:59;-9.39;52.76
60242;SHT30;46103;52.076;113.488;2023-02-18T03:30:15;-9.49;53.32
60242;SHT30;46103;52.076;113.488;2023-02-18T03:33:29;-9.43;53.68
60242;SHT30;46103;52.076;113.488;2023-02-18T03:36:34;-9.47;53.69
60242;SHT30;46103;52.076;113.488;2023-02-18T03:39:43;-9.56;53.93
60242;SHT30;46103;52.076;113.488;2023-02-18T03:42:49;-9.36;53.90
60242;SHT30;46103;52.076;113.488;2023-02-18T03:45:53;-9.26;53.77
60242;SHT30;46103;52.076;113.488;2023-02-18T03:48:58;-9.28;53.55
60242;SHT30;46103;52.076;113.488;2023-02-18T03:52:06;-9.33;53.37
60242;SHT30;46103;52.076;113.488;2023-02-18T03:55:12;-9.23;53.41
60242;SHT30;46103;52.076;113.488;2023-02-18T03:58:16;-9.26;53.75
60242;SHT30;46103;52.076;113.488;2023-02-18T04:01:20;-9.26;53.32
60242;SHT30;46103;52.076;113.488;2023-02-18T04:04:25;-8.97;52.93
60242;SHT30;46103;52.076;113.488;2023-02-18T04:07:29;-8.70;52.54
60242;SHT30;46103;52.076;113.488;2023-02-18T04:10:32;-8.57;51.71
60242;SHT30;46103;52.076;113.488;2023-02-18T04:13:37;-8.46;51.60
60242;SHT30;46103;52.076;113.488;2023-02-18T04:16:41;-8.39;51.61
60242;SHT30;46103;52.076;113.488;2023-02-18T04:19:45;-8.15;51.44
60242;SHT30;46103;52.076;113.488;2023-02-18T04:22:49;-8.05;51.07
60242;SHT30;46103;52.076;113.488;2023-02-18T04:25:52;-8.04;51.18
60242;SHT30;46103;52.076;113.488;2023-02-18T04:28:56;-8.01;51.76
60242;SHT30;46103;52.076;113.488;2023-02-18T04:32:00;-7.91;51.24
60242;SHT30;46103;52.076;113.488;2023-02-18T04:35:04;-7.81;50.46
60242;SHT30;46103;52.076;113.488;2023-02-18T04:38:09;-7.79;51.10
60242;SHT30;46103;52.076;113.488;2023-02-18T04:41:13;-7.74;51.03
60242;SHT30;46103;52.076;113.488;2023-02-18T04:44:17;-7.94;51.60
60242;SHT30;46103;52.076;113.488;2023-02-18T04:47:20;-7.79;51.91
60242;SHT30;46103;52.076;113.488;2023-02-18T04:50:23;-7.80;51.86
60242;SHT30;46103;52.076;113.488;2023-02-18T04:53:28;-7.98;52.29
60242;SHT30;46103;52.076;113.488;2023-02-18T04:56:32;-7.86;52.75
60242;SHT30;46103;52.076;113.488;2023-02-18T04:59:36;-7.66;52.07
60242;SHT30;46103;52.076;113.488;2023-02-18T05:02:40;-7.46;50.70
60242;SHT30;46103;52.076;113.488;2023-02-18T05:05:45;-7.04;50.14
60242;SHT30;46103;52.076;113.488;2023-02-18T05:08:48;-6.83;47.44
60242;SHT30;46103;52.076;113.488;2023-02-18T05:11:53;-6.56;48.13
60242;SHT30;46103;52.076;113.488;2023-02-18T05:14:56;-6.62;47.43
60242;SHT30;46103;52.076;113.488;2023-02-18T05:18:00;-6.39;45.98
60242;SHT30;46103;52.076;113.488;2023-02-18T05:21:06;-6.52;46.05
60242;SHT30;46103;52.076;113.488;2023-02-18T05:24:13;-6.39;45.04
60242;SHT30;46103;52.076;113.488;2023-02-18T05:27:17;-6.12;44.80
60242;SHT30;46103;52.076;113.488;2023-02-18T05:30:21;-6.30;44.93
60242;SHT30;46103;52.076;113.488;2023-02-18T05:33:24;-6.32;45.01
60242;SHT30;46103;52.076;113.488;2023-02-18T05:36:28;-6.15;46.25
60242;SHT30;46103;52.076;113.488;2023-02-18T05:39:31;-5.93;46.68
60242;SHT30;46103;52.076;113.488;2023-02-18T05:42:35;-5.74;45.93
60242;SHT30;46103;52.076;113.488;2023-02-18T05:45:39;-5.84;45.41
60242;SHT30;46103;52.076;113.488;2023-02-18T05:48:43;-5.69;45.71
60242;SHT30;46103;52.076;113.488;2023-02-18T05:51:46;-5.39;44.84
60242;SHT30;46103;52.076;113.488;2023-02-18T05:54:51;-5.66;45.47
60242;SHT30;46103;52.076;113.488;2023-02-18T05:57:54;-5.59;46.52
60242;SHT30;46103;52.076;113.488;2023-02-18T06:00:58;-5.83;46.32
60242;SHT30;46103;52.076;113.488;2023-02-18T06:04:02;-6.17;46.34
60242;SHT30;46103;52.076;113.488;2023-02-18T06:07:06;-6.15;46.66
60242;SHT30;46103;52.076;113.488;2023-02-18T06:10:12;-6.15;46.57
60242;SHT30;46103;52.076;113.488;2023-02-18T06:13:23;-6.64;46.88
60242;SHT30;46103;52.076;113.488;2023-02-18T06:16:27;-6.38;46.58
60242;SHT30;46103;52.076;113.488;2023-02-18T06:19:31;-6.32;46.25
60242;SHT30;46103;52.076;113.488;2023-02-18T06:22:34;-6.21;46.05
60242;SHT30;46103;52.076;113.488;2023-02-18T06:25:37;-6.30;45.71
60242;SHT30;46103;52.076;113.488;2023-02-18T06:28:41;-6.38;45.83
60242;SHT30;46103;52.076;113.488;2023-02-18T06:31:45;-6.52;46.12
60242;SHT30;46103;52.076;113.488;2023-02-18T06:34:48;-6.56;47.05
60242;SHT30;46103;52.076;113.488;2023-02-18T06:37:51;-6.72;46.93
60242;SHT30;46103;52.076;113.488;2023-02-18T06:40:55;-6.81;47.97
60242;SHT30;46103;52.076;113.488;2023-02-18T06:43:59;-6.76;48.49
60242;SHT30;46103;52.076;113.488;2023-02-18T06:47:03;-6.83;49.18
60242;SHT30;46103;52.076;113.488;2023-02-18T06:50:07;-7.00;50.08
60242;SHT30;46103;52.076;113.488;2023-02-18T06:53:11;-7.21;52.11
60242;SHT30;46103;52.076;113.488;2023-02-18T06:56:15;-7.14;54.07
60242;SHT30;46103;52.076;113.488;2023-02-18T06:59:19;-6.93;53.10
60242;SHT30;46103;52.076;113.488;2023-02-18T07:02:22;-6.88;52.85
60242;SHT30;46103;52.076;113.488;2023-02-18T07:05:26;-6.79;52.63
60242;SHT30;46103;52.076;113.488;2023-02-18T07:08:29;-6.63;52.96
60242;SHT30;46103;52.076;113.488;2023-02-18T07:11:37;-6.38;50.85
60242;SHT30;46103;52.076;113.488;2023-02-18T07:14:43;-6.25;49.28
60242;SHT30;46103;52.076;113.488;2023-02-18T07:17:59;-6.04;48.59
60242;SHT30;46103;52.076;113.488;2023-02-18T07:21:05;-5.69;48.03
60242;SHT30;46103;52.076;113.488;2023-02-18T07:24:08;-5.90;42.39
60242;SHT30;46103;52.076;113.488;2023-02-18T07:27:11;-6.63;42.66
60242;SHT30;46103;52.076;113.488;2023-02-18T07:30:16;-6.97;43.55
60242;SHT30;46103;52.076;113.488;2023-02-18T07:33:19;-7.29;43.80
60242;SHT30;46103;52.076;113.488;2023-02-18T07:36:23;-7.29;44.68
60242;SHT30;46103;52.076;113.488;2023-02-18T07:39:27;-7.44;44.09
60242;SHT30;46103;52.076;113.488;2023-02-18T07:42:30;-7.38;44.19
60242;SHT30;46103;52.076;113.488;2023-02-18T07:45:37;-7.47;44.78
60242;SHT30;46103;52.076;113.488;2023-02-18T07:48:41;-7.56;46.65
60242;SHT30;46103;52.076;113.488;2023-02-18T07:51:47;-7.66;46.88
60242;SHT30;46103;52.076;113.488;2023-02-18T07:54:51;-7.70;47.42
60242;SHT30;46103;52.076;113.488;2023-02-18T07:57:54;-7.67;48.24
60242;SHT30;46103;52.076;113.488;2023-02-18T08:01:07;-7.61;48.19
60242;SHT30;46103;52.076;113.488;2023-02-18T08:04:12;-7.61;48.70
60242;SHT30;46103;52.076;113.488;2023-02-18T08:07:17;-7.70;47.97
60242;SHT30;46103;52.076;113.488;2023-02-18T08:10:21;-7.84;48.36
60242;SHT30;46103;52.076;113.488;2023-02-18T08:13:24;-7.91;48.37
60242;SHT30;46103;52.076;113.488;2023-02-18T08:16:28;-8.08;49.60
60242;SHT30;46103;52.076;113.488;2023-02-18T08:19:31;-8.11;50.56
60242;SHT30;46103;52.076;113.488;2023-02-18T08:22:36;-8.15;50.52
60242;SHT30;46103;52.076;113.488;2023-02-18T08:25:40;-8.24;50.33
60242;SHT30;46103;52.076;113.488;2023-02-18T09:09:19;-9.66;55.73
60242;SHT30;46103;52.076;113.488;2023-02-18T09:12:23;-9.52;55.88
60242;SHT30;46103;52.076;113.488;2023-02-18T09:15:26;-9.39;55.83
60242;SHT30;46103;52.076;113.488;2023-02-18T09:18:30;-9.23;55.62
60242;SHT30;46103;52.076;113.488;2023-02-18T09:21:34;-9.18;55.56
60242;SHT30;46103;52.076;113.488;2023-02-18T09:24:38;-9.19;55.12
60242;SHT30;46103;52.076;113.488;2023-02-18T09:27:43;-9.21;55.52
60242;SHT30;46103;52.076;113.488;2023-02-18T09:30:46;-9.22;55.91
60242;SHT30;46103;52.076;113.488;2023-02-18T09:33:53;-9.28;56.34
60242;SHT30;46103;52.076;113.488;2023-02-18T09:36:56;-9.23;56.40
60242;SHT30;46103;52.076;113.488;2023-02-18T09:39:59;-9.28;56.57
60242;SHT30;46103;52.076;113.488;2023-02-18T09:43:04;-9.31;56.84
60242;SHT30;46103;52.076;113.488;2023-02-18T09:46:22;-9.35;57.12
60242;SHT30;46103;52.076;113.488;2023-02-18T09:49:31;-9.35;57.57
60242;SHT30;46103;52.076;113.488;2023-02-18T09:52:39;-9.39;57.91
60242;SHT30;46103;52.076;113.488;2023-02-18T09:55:46;-9.39;58.09
60242;SHT30;46103;52.076;113.488;2023-02-18T09:58:52;-9.44;58.34
60242;SHT30;46103;52.076;113.488;2023-02-18T10:01:57;-9.47;58.56
60242;SHT30;46103;52.076;113.488;2023-02-18T10:05:04;-9.49;58.65
60242;SHT30;46103;52.076;113.488;2023-02-18T10:08:24;-9.46;58.72
60242;SHT30;46103;52.076;113.488;2023-02-18T10:11:40;-9.47;58.89
60242;SHT30;46103;52.076;113.488;2023-02-18T10:15:15;-9.49;58.94
60242;SHT30;46103;52.076;113.488;2023-02-18T10:18:23;-9.53;59.14
60242;SHT30;46103;52.076;113.488;2023-02-18T10:21:33;-9.59;59.24
60242;SHT30;46103;52.076;113.488;2023-02-18T10:24:43;-9.60;59.16
60242;SHT30;46103;52.076;113.488;2023-02-18T10:27:51;-9.61;59.02
60242;SHT30;46103;52.076;113.488;2023-02-18T10:30:58;-9.63;59.13
60242;SHT30;46103;52.076;113.488;2023-02-18T10:44:26;-9.81;59.29
60242;SHT30;46103;52.076;113.488;2023-02-18T10:51:21;-9.91;59.51
60242;SHT30;46103;52.076;113.488;2023-02-18T10:54:57;-9.97;59.64
60242;SHT30;46103;52.076;113.488;2023-02-18T10:58:09;-9.98;59.61
60242;SHT30;46103;52.076;113.488;2023-02-18T11:01:29;-10.01;59.70
60242;SHT30;46103;52.076;113.488;2023-02-18T11:04:41;-10.05;59.69
60242;SHT30;46103;52.076;113.488;2023-02-18T11:07:50;-10.09;59.80
60242;SHT30;46103;52.076;113.488;2023-02-18T11:10:56;-10.11;59.94
60242;SHT30;46103;52.076;113.488;2023-02-18T11:14:05;-10.12;60.01
60242;SHT30;46103;52.076;113.488;2023-02-18T11:17:19;-10.08;59.72
60242;SHT30;46103;52.076;113.488;2023-02-18T11:20:34;-10.12;59.80
60242;SHT30;46103;52.076;113.488;2023-02-18T11:24:07;-10.09;59.65
60242;SHT30;46103;52.076;113.488;2023-02-18T11:27:24;-10.09;59.67
60242;SHT30;46103;52.076;113.488;2023-02-18T11:30:32;-10.12;59.60
60242;SHT30;46103;52.076;113.488;2023-02-18T11:33:42;-10.11;59.72
60242;SHT30;46103;52.076;113.488;2023-02-18T11:36:47;-10.12;59.76
60242;SHT30;46103;52.076;113.488;2023-02-18T11:39:54;-10.12;59.73
60242;SHT30;46103;52.076;113.488;2023-02-18T11:43:10;-10.15;59.86
60242;SHT30;46103;52.076;113.488;2023-02-18T11:46:19;-10.21;60.01
60242;SHT30;46103;52.076;113.488;2023-02-18T11:49:24;-10.18;60.01
60242;SHT30;46103;52.076;113.488;2023-02-18T11:52:34;-10.19;60.16
60242;SHT30;46103;52.076;113.488;2023-02-18T11:55:53;-10.22;60.34
60242;SHT30;46103;52.076;113.488;2023-02-18T11:59:03;-10.18;60.57
60242;SHT30;46103;52.076;113.488;2023-02-18T12:05:25;-10.08;60.63
60242;SHT30;46103;52.076;113.488;2023-02-18T12:08:33;-10.09;61.00
60242;SHT30;46103;52.076;113.488;2023-02-18T12:11:47;-10.09;60.74
60242;SHT30;46103;52.076;113.488;2023-02-18T12:14:53;-10.09;61.09
60242;SHT30;46103;52.076;113.488;2023-02-18T12:18:19;-10.12;61.19
60242;SHT30;46103;52.076;113.488;2023-02-18T12:35:59;-10.42;62.81
60242;SHT30;46103;52.076;113.488;2023-02-18T12:46:12;-10.63;64.28
60242;SHT30;46103;52.076;113.488;2023-02-18T12:49:24;-10.68;64.88
60242;SHT30;46103;52.076;113.488;2023-02-18T12:59:11;-10.49;65.24
60242;SHT30;46103;52.076;113.488;2023-02-18T13:09:01;-10.42;64.70
60242;SHT30;46103;52.076;113.488;2023-02-18T13:15:18;-10.47;64.70
60242;SHT30;46103;52.076;113.488;2023-02-18T13:18:37;-10.50;64.41
60242;SHT30;46103;52.076;113.488;2023-02-18T13:21:43;-10.60;64.76
60242;SHT30;46103;52.076;113.488;2023-02-18T13:24:53;-10.71;65.16
60242;SHT30;46103;52.076;113.488;2023-02-18T13:28:14;-10.77;65.71
60242;SHT30;46103;52.076;113.488;2023-02-18T13:31:39;-10.87;66.25
60242;SHT30;46103;52.076;113.488;2023-02-18T13:34:54;-11.02;66.50
60242;SHT30;46103;52.076;113.488;2023-02-18T13:38:19;-11.11;66.92
60242;SHT30;46103;52.076;113.488;2023-02-18T13:41:35;-11.16;66.89
60242;SHT30;46103;52.076;113.488;2023-02-18T13:48:27;-11.25;66.50
60242;SHT30;46103;52.076;113.488;2023-02-18T13:54:46;-11.36;66.49
60242;SHT30;46103;52.076;113.488;2023-02-18T13:57:54;-11.42;66.32
60242;SHT30;46103;52.076;113.488;2023-02-18T14:07:51;-11.59;65.69
60242;SHT30;46103;52.076;113.488;2023-02-18T14:14:32;-11.66;65.49
60242;SHT30;46103;52.076;113.488;2023-02-18T14:17:40;-11.73;65.59
60242;SHT30;46103;52.076;113.488;2023-02-18T14:20:47;-11.78;65.81
60242;SHT30;46103;52.076;113.488;2023-02-18T14:27:08;-11.82;65.40
60242;SHT30;46103;52.076;113.488;2023-02-18T14:30:32;-11.88;65.66
60242;SHT30;46103;52.076;113.488;2023-02-18T14:37:11;-12.03;65.32
60242;SHT30;46103;52.076;113.488;2023-02-18T14:40:55;-12.09;64.86
60242;SHT30;46103;52.076;113.488;2023-02-18T14:47:25;-12.22;65.44
60242;SHT30;46103;52.076;113.488;2023-02-18T14:50:33;-12.29;65.70
60242;SHT30;46103;52.076;113.488;2023-02-18T14:53:44;-12.32;65.00
60242;SHT30;46103;52.076;113.488;2023-02-18T14:59:59;-12.37;64.17
60242;SHT30;46103;52.076;113.488;2023-02-18T15:03:16;-12.35;63.34
60242;SHT30;46103;52.076;113.488;2023-02-18T15:06:28;-12.40;64.03
60242;SHT30;46103;52.076;113.488;2023-02-18T15:09:32;-12.37;64.26
60242;SHT30;46103;52.076;113.488;2023-02-18T15:12:36;-12.43;64.44
60242;SHT30;46103;52.076;113.488;2023-02-18T15:15:42;-12.50;65.04
60242;SHT30;46103;52.076;113.488;2023-02-18T15:19:04;-12.56;64.71
60242;SHT30;46103;52.076;113.488;2023-02-18T15:22:16;-12.66;64.35
60242;SHT30;46103;52.076;113.488;2023-02-18T15:25:20;-12.75;64.37
60242;SHT30;46103;52.076;113.488;2023-02-18T15:28:29;-12.71;64.09
60242;SHT30;46103;52.076;113.488;2023-02-18T15:31:38;-12.74;64.93
60242;SHT30;46103;52.076;113.488;2023-02-18T15:34:44;-12.75;65.41
60242;SHT30;46103;52.076;113.488;2023-02-18T15:37:56;-12.73;66.08
60242;SHT30;46103;52.076;113.488;2023-02-18T15:41:19;-12.75;65.93
60242;SHT30;46103;52.076;113.488;2023-02-18T15:44:28;-12.81;65.87
60242;SHT30;46103;52.076;113.488;2023-02-18T15:47:32;-12.84;65.80
60242;SHT30;46103;52.076;113.488;2023-02-18T15:50:44;-12.91;65.50
60242;SHT30;46103;52.076;113.488;2023-02-18T15:53:55;-12.85;65.13
60242;SHT30;46103;52.076;113.488;2023-02-18T15:57:02;-12.88;64.79
60242;SHT30;46103;52.076;113.488;2023-02-18T16:00:19;-12.96;64.69
60242;SHT30;46103;52.076;113.488;2023-02-18T16:06:35;-12.99;64.45
60242;SHT30;46103;52.076;113.488;2023-02-18T16:09:40;-12.95;64.39
60242;SHT30;46103;52.076;113.488;2023-02-18T16:12:48;-12.91;63.96
60242;SHT30;46103;52.076;113.488;2023-02-18T16:15:52;-12.95;63.94
60242;SHT30;46103;52.076;113.488;2023-02-18T16:18:56;-13.01;63.72
60242;SHT30;46103;52.076;113.488;2023-02-18T16:22:04;-12.96;62.92
60242;SHT30;46103;52.076;113.488;2023-02-18T16:25:21;-12.96;62.26
60242;SHT30;46103;52.076;113.488;2023-02-18T16:28:31;-12.92;61.74
60242;SHT30;46103;52.076;113.488;2023-02-18T16:31:36;-12.92;61.54
60242;SHT30;46103;52.076;113.488;2023-02-18T16:34:41;-12.91;61.44
60242;SHT30;46103;52.076;113.488;2023-02-18T16:37:45;-12.88;60.57
60242;SHT30;46103;52.076;113.488;2023-02-18T16:40:53;-12.85;58.92
60242;SHT30;46103;52.076;113.488;2023-02-18T16:43:57;-12.80;57.14
60242;SHT30;46103;52.076;113.488;2023-02-18T16:47:01;-12.81;57.03
60242;SHT30;46103;52.076;113.488;2023-02-18T16:50:06;-12.81;56.84
60242;SHT30;46103;52.076;113.488;2023-02-18T16:53:18;-12.83;57.24
60242;SHT30;46103;52.076;113.488;2023-02-18T16:56:25;-12.88;57.18
60242;SHT30;46103;52.076;113.488;2023-02-18T16:59:31;-12.89;56.92
60242;SHT30;46103;52.076;113.488;2023-02-18T17:02:36;-12.89;56.15
60242;SHT30;46103;52.076;113.488;2023-02-18T17:05:41;-12.84;54.59
60242;SHT30;46103;52.076;113.488;2023-02-18T17:08:48;-12.71;53.49
60242;SHT30;46103;52.076;113.488;2023-02-18T17:11:55;-12.71;54.38
60242;SHT30;46103;52.076;113.488;2023-02-18T17:14:59;-12.75;54.50
60242;SHT30;46103;52.076;113.488;2023-02-18T17:18:04;-12.74;54.52
60242;SHT30;46103;52.076;113.488;2023-02-18T17:21:12;-12.73;54.45
60242;SHT30;46103;52.076;113.488;2023-02-18T17:24:18;-12.75;54.80
60242;SHT30;46103;52.076;113.488;2023-02-18T17:27:23;-12.77;54.79
60242;SHT30;46103;52.076;113.488;2023-02-18T17:30:30;-12.80;55.03
60242;SHT30;46103;52.076;113.488;2023-02-18T17:33:36;-12.81;55.41
60242;SHT30;46103;52.076;113.488;2023-02-18T17:36:42;-12.87;55.81
60242;SHT30;46103;52.076;113.488;2023-02-18T17:39:49;-12.87;55.51
60242;SHT30;46103;52.076;113.488;2023-02-18T17:42:55;-12.84;55.51
60242;SHT30;46103;52.076;113.488;2023-02-18T17:45:59;-12.92;55.37
60242;SHT30;46103;52.076;113.488;2023-02-18T17:49:03;-12.94;55.65
60242;SHT30;46103;52.076;113.488;2023-02-18T17:52:16;-12.98;55.49
60242;SHT30;46103;52.076;113.488;2023-02-18T17:55:35;-12.99;55.41
60242;SHT30;46103;52.076;113.488;2023-02-18T17:58:41;-13.11;55.47
60242;SHT30;46103;52.076;113.488;2023-02-18T18:01:45;-13.22;55.52
60242;SHT30;46103;52.076;113.488;2023-02-18T18:04:48;-13.22;55.33
60242;SHT30;46103;52.076;113.488;2023-02-18T18:07:53;-13.30;55.36
60242;SHT30;46103;52.076;113.488;2023-02-18T18:10:59;-13.32;55.45
60242;SHT30;46103;52.076;113.488;2023-02-18T18:14:03;-13.37;55.47
60242;SHT30;46103;52.076;113.488;2023-02-18T18:17:11;-13.39;55.22
60242;SHT30;46103;52.076;113.488;2023-02-18T18:20:14;-13.48;55.33
60242;SHT30;46103;52.076;113.488;2023-02-18T18:23:19;-13.55;55.36
60242;SHT30;46103;52.076;113.488;2023-02-18T18:26:24;-13.58;55.16
60242;SHT30;46103;52.076;113.488;2023-02-18T18:29:28;-13.64;55.25
60242;SHT30;46103;52.076;113.488;2023-02-18T18:32:34;-13.74;56.09
60242;SHT30;46103;52.076;113.488;2023-02-18T18:35:39;-13.83;56.48
60242;SHT30;46103;52.076;113.488;2023-02-18T18:38:45;-13.88;56.70
60242;SHT30;46103;52.076;113.488;2023-02-18T18:41:49;-13.93;57.08
60242;SHT30;46103;52.076;113.488;2023-02-18T18:44:54;-13.99;57.39
60242;SHT30;46103;52.076;113.488;2023-02-18T18:47:59;-14.01;57.26
60242;SHT30;46103;52.076;113.488;2023-02-18T18:51:03;-14.02;57.33
60242;SHT30;46103;52.076;113.488;2023-02-18T18:54:10;-14.05;57.24
60242;SHT30;46103;52.076;113.488;2023-02-18T18:57:14;-14.16;57.34
60242;SHT30;46103;52.076;113.488;2023-02-18T19:00:20;-14.33;57.73
60242;SHT30;46103;52.076;113.488;2023-02-18T19:03:27;-14.47;58.17
60242;SHT30;46103;52.076;113.488;2023-02-18T19:06:31;-14.50;58.00
60242;SHT30;46103;52.076;113.488;2023-02-18T19:09:35;-14.58;57.81
60242;SHT30;46103;52.076;113.488;2023-02-18T19:12:38;-14.58;57.85
60242;SHT30;46103;52.076;113.488;2023-02-18T19:15:42;-14.61;57.81
60242;SHT30;46103;52.076;113.488;2023-02-18T19:18:46;-14.54;57.08
60242;SHT30;46103;52.076;113.488;2023-02-18T19:21:50;-14.41;56.34
60242;SHT30;46103;52.076;113.488;2023-02-18T19:24:54;-14.33;55.67
60242;SHT30;46103;52.076;113.488;2023-02-18T19:27:58;-14.36;55.67
60242;SHT30;46103;52.076;113.488;2023-02-18T19:31:05;-14.46;56.09
60242;SHT30;46103;52.076;113.488;2023-02-18T19:34:09;-14.56;56.03
60242;SHT30;46103;52.076;113.488;2023-02-18T19:37:13;-14.63;56.47
60242;SHT30;46103;52.076;113.488;2023-02-18T19:40:23;-14.68;56.79
60242;SHT30;46103;52.076;113.488;2023-02-18T19:43:27;-14.79;57.37
60242;SHT30;46103;52.076;113.488;2023-02-18T19:46:30;-14.78;57.32
60242;SHT30;46103;52.076;113.488;2023-02-18T19:49:34;-14.75;56.88
60242;SHT30;46103;52.076;113.488;2023-02-18T19:52:38;-14.78;56.72
60242;SHT30;46103;52.076;113.488;2023-02-18T19:55:42;-14.86;56.81
60242;SHT30;46103;52.076;113.488;2023-02-18T19:58:45;-14.86;56.85
60242;SHT30;46103;52.076;113.488;2023-02-18T20:01:48;-14.86;56.39
60242;SHT30;46103;52.076;113.488;2023-02-18T20:04:52;-14.95;56.52
60242;SHT30;46103;52.076;113.488;2023-02-18T20:08:01;-14.96;56.58
60242;SHT30;46103;52.076;113.488;2023-02-18T20:11:06;-14.88;55.94
60242;SHT30;46103;52.076;113.488;2023-02-18T20:14:11;-14.92;55.91
60242;SHT30;46103;52.076;113.488;2023-02-18T20:17:14;-14.93;56.11
60242;SHT30;46103;52.076;113.488;2023-02-18T20:20:18;-14.98;56.22
60242;SHT30;46103;52.076;113.488;2023-02-18T20:23:21;-14.92;56.29
60242;SHT30;46103;52.076;113.488;2023-02-18T20:26:25;-14.96;56.07
60242;SHT30;46103;52.076;113.488;2023-02-18T20:29:29;-15.00;56.36
60242;SHT30;46103;52.076;113.488;2023-02-18T20:32:35;-15.00;56.29
60242;SHT30;46103;52.076;113.488;2023-02-18T20:35:39;-14.98;56.03
60242;SHT30;46103;52.076;113.488;2023-02-18T20:38:42;-14.99;55.90
60242;SHT30;46103;52.076;113.488;2023-02-18T20:41:46;-15.09;55.83
60242;SHT30;46103;52.076;113.488;2023-02-18T20:44:50;-15.12;56.01
60242;SHT30;46103;52.076;113.488;2023-02-18T20:47:54;-15.19;56.35
60242;SHT30;46103;52.076;113.488;2023-02-18T20:51:12;-15.23;56.25
60242;SHT30;46103;52.076;113.488;2023-02-18T20:54:17;-15.28;56.54
60242;SHT30;46103;52.076;113.488;2023-02-18T20:57:21;-15.28;56.29
60242;SHT30;46103;52.076;113.488;2023-02-18T21:00:25;-15.33;56.38
60242;SHT30;46103;52.076;113.488;2023-02-18T21:03:29;-15.31;56.51
60242;SHT30;46103;52.076;113.488;2023-02-18T21:06:32;-15.24;56.19
60242;SHT30;46103;52.076;113.488;2023-02-18T21:09:35;-15.22;55.89
60242;SHT30;46103;52.076;113.488;2023-02-18T21:12:39;-15.20;55.93
60242;SHT30;46103;52.076;113.488;2023-02-18T21:15:42;-15.17;55.83
60242;SHT30;46103;52.076;113.488;2023-02-18T21:18:45;-15.17;55.75
60242;SHT30;46103;52.076;113.488;2023-02-18T21:21:49;-15.13;55.67
60242;SHT30;46103;52.076;113.488;2023-02-18T21:24:52;-15.15;55.62
60242;SHT30;46103;52.076;113.488;2023-02-18T21:27:56;-15.09;55.60
60242;SHT30;46103;52.076;113.488;2023-02-18T21:31:00;-15.09;55.39